Time;durP1;ratioP1;P1;durP2;ratioP2;P2;SDS_P1;SDS_P2;PMS_P1;PMS_P2;Temp;Humidity;BMP_temperature;BMP_pressure;BME280_temperature;BME280_humidity;BME280_pressure;Samples;Min_cycle;Max_cycle;Signal;HPM_P1;HPM_P2
2021/01/15 00:03:39;;;;;;;3.00;2.40;;;;;;;-2.74;100.00;94284.09;10531825;28;20517;-73
2021/01/15 00:08:39;;;;;;;4.03;2.58;;;;;;;-2.77;100.00;94281.88;10513667;28;20069;-73
2021/01/15 00:13:40;;;;;;;4.63;2.97;;;;;;;-2.85;100.00;94284.69;10532357;28;20035;-73
2021/01/15 00:18:40;;;;;;;3.55;2.22;;;;;;;-2.72;100.00;94299.66;10531029;28;20081;-73
2021/01/15 00:23:41;;;;;;;3.53;2.50;;;;;;;-2.69;100.00;94291.34;10513087;28;20024;-73
2021/01/15 00:28:41;;;;;;;3.30;2.90;;;;;;;-2.78;100.00;94293.38;10531703;28;20323;-73
2021/01/15 00:33:42;;;;;;;5.97;3.22;;;;;;;-2.89;100.00;94296.63;10530999;28;20031;-73
2021/01/15 00:38:42;;;;;;;7.25;3.97;;;;;;;-3.05;100.00;94295.19;10530781;28;20020;-73
2021/01/15 00:43:43;;;;;;;4.27;2.90;;;;;;;-3.20;100.00;94297.97;10531213;28;20031;-73
2021/01/15 00:48:43;;;;;;;6.20;3.83;;;;;;;-3.07;100.00;94312.97;10530419;28;20312;-73
2021/01/15 00:53:43;;;;;;;4.67;3.37;;;;;;;-3.01;100.00;94318.25;10529851;28;20300;-73
2021/01/15 00:58:50;;;;;;;5.40;3.67;;;;;;;-3.00;100.00;94322.50;10530347;28;20361;-73
2021/01/15 01:03:51;;;;;;;6.20;3.20;;;;;;;-3.09;100.00;94323.69;10510223;28;20024;-73
2021/01/15 01:08:52;;;;;;;5.85;3.60;;;;;;;-3.02;100.00;94318.44;10529225;28;20023;-73
2021/01/15 01:13:54;;;;;;;5.78;3.20;;;;;;;-3.11;100.00;94323.09;10522269;28;20031;-73
2021/01/15 01:18:55;;;;;;;7.55;3.92;;;;;;;-3.07;100.00;94321.66;10526830;28;20051;-73
2021/01/15 01:23:55;;;;;;;8.52;5.00;;;;;;;-2.90;100.00;94323.91;10527918;28;20033;-73
2021/01/15 01:28:55;;;;;;;5.20;4.17;;;;;;;-2.89;100.00;94323.72;10524445;28;20038;-73
2021/01/15 01:33:56;;;;;;;7.90;4.30;;;;;;;-2.85;100.00;94326.75;10507562;28;20841;-73
2021/01/15 01:38:56;;;;;;;5.97;3.53;;;;;;;-2.80;100.00;94334.88;10509193;28;20024;-73
2021/01/15 01:43:56;;;;;;;7.60;3.60;;;;;;;-2.74;100.00;94336.69;10541742;28;20122;-73
2021/01/15 01:48:57;;;;;;;5.23;3.67;;;;;;;-2.77;100.00;94348.41;10527871;28;20289;-73
2021/01/15 01:53:59;;;;;;;9.23;3.67;;;;;;;-2.59;100.00;94350.47;10528178;28;20084;-73
2021/01/15 01:59:00;;;;;;;3.95;3.08;;;;;;;-2.56;100.00;94353.72;10509908;28;20383;-73
2021/01/15 02:04:03;;;;;;;5.90;3.00;;;;;;;-2.60;100.00;94348.03;10527454;28;20028;-73
2021/01/15 02:09:07;;;;;;;5.85;3.58;;;;;;;-2.72;100.00;94345.19;10510006;28;20055;-73
2021/01/15 02:14:35;;;;;;;7.13;4.38;;;;;;;-2.67;100.00;94350.66;10514787;28;20024;-73
2021/01/15 02:20:03;;;;;;;5.00;3.47;;;;;;;-2.62;100.00;94350.06;10535604;28;20040;-74
2021/01/15 02:25:25;;;;;;;9.50;4.25;;;;;;;-2.64;100.00;94366.06;10535588;28;20033;-73
2021/01/15 02:30:41;;;;;;;7.07;3.83;;;;;;;-2.82;100.00;94363.16;10536603;28;20050;-73
2021/01/15 02:35:46;;;;;;;7.28;4.45;;;;;;;-3.11;100.00;94375.66;10535785;28;20356;-72
2021/01/15 02:41:05;;;;;;;7.20;3.65;;;;;;;-2.91;100.00;94370.44;10549235;28;20027;-72
2021/01/15 02:46:10;;;;;;;7.47;4.65;;;;;;;-3.15;100.00;94369.16;10534783;28;20376;-72
2021/01/15 02:51:13;;;;;;;6.95;4.60;;;;;;;-3.27;100.00;94372.31;10534896;28;20039;-72
2021/01/15 02:56:14;;;;;;;8.90;5.60;;;;;;;-3.29;100.00;94373.56;10534179;28;20035;-72
2021/01/15 03:01:15;;;;;;;10.07;4.35;;;;;;;-3.21;100.00;94378.66;10534243;28;20507;-73
2021/01/15 03:06:22;;;;;;;7.10;4.70;;;;;;;-3.06;100.00;94378.47;10526060;28;20082;-72
2021/01/15 03:11:22;;;;;;;11.15;4.50;;;;;;;-3.16;100.00;94389.38;10534370;28;20023;-72
2021/01/15 03:16:24;;;;;;;8.02;4.97;;;;;;;-3.12;100.00;94385.34;10534142;28;20032;-72
2021/01/15 03:21:27;;;;;;;4.63;3.40;;;;;;;-3.11;100.00;94391.41;10533300;28;20414;-73
2021/01/15 03:26:28;;;;;;;6.35;4.68;;;;;;;-3.12;100.00;94387.16;10531848;28;20089;-73
2021/01/15 03:31:29;;;;;;;5.82;4.13;;;;;;;-2.94;100.00;94386.63;10513465;28;20139;-73
2021/01/15 03:36:30;;;;;;;7.68;4.70;;;;;;;-2.76;100.00;94389.50;10491934;28;20381;-73
2021/01/15 03:41:30;;;;;;;11.30;5.30;;;;;;;-2.50;100.00;94387.09;10472856;28;20033;-73
2021/01/15 03:46:30;;;;;;;7.35;4.88;;;;;;;-2.54;100.00;94383.25;10490923;28;20345;-73
2021/01/15 03:51:31;;;;;;;9.40;4.93;;;;;;;-2.62;100.00;94385.06;10490434;28;20028;-72
2021/01/15 03:56:31;;;;;;;6.93;4.72;;;;;;;-2.87;100.00;94384.81;10490192;28;20271;-73
2021/01/15 04:01:33;;;;;;;10.37;5.90;;;;;;;-3.16;100.00;94378.84;10489717;28;20043;-73
2021/01/15 04:06:33;;;;;;;13.05;4.68;;;;;;;-3.01;100.00;94388.41;10499059;28;20028;-74
2021/01/15 04:11:33;;;;;;;8.23;4.68;;;;;;;-2.88;100.00;94390.28;10529965;28;20035;-72
2021/01/15 04:16:34;;;;;;;6.25;4.82;;;;;;;-2.82;100.00;94407.88;10529763;28;20107;-73
2021/01/15 04:21:34;;;;;;;5.60;4.43;;;;;;;-2.70;100.00;94402.88;10497032;28;20040;-73
2021/01/15 04:26:35;;;;;;;9.87;5.77;;;;;;;-2.56;100.00;94411.59;10488129;28;20685;-73
2021/01/15 04:31:35;;;;;;;7.70;5.05;;;;;;;-2.63;100.00;94422.09;10488292;28;20650;-73
2021/01/15 04:36:35;;;;;;;7.93;5.20;;;;;;;-2.72;100.00;94424.09;10487504;28;20032;-73
2021/01/15 04:41:36;;;;;;;10.98;5.25;;;;;;;-2.75;100.00;94427.94;10487528;28;20298;-70
2021/01/15 04:46:40;;;;;;;5.85;4.32;;;;;;;-2.66;100.00;94415.41;10487858;28;20025;-70
2021/01/15 04:51:40;;;;;;;10.70;5.47;;;;;;;-2.45;100.00;94419.69;10487991;28;20024;-71
2021/01/15 04:56:49;;;;;;;8.25;4.78;;;;;;;-2.39;100.00;94436.50;10487615;28;20036;-70
2021/01/15 05:01:49;;;;;;;;;;;;;;;-2.26;100.00;94436.53;10488524;28;20075;-70
2021/01/15 05:06:51;;;;;;;7.50;4.78;;;;;;;-2.62;100.00;94432.41;10488757;28;20004;-70
2021/01/15 05:11:52;;;;;;;9.35;4.85;;;;;;;-2.62;100.00;94437.69;10488428;28;20031;-69
2021/01/15 05:17:02;;;;;;;10.93;5.32;;;;;;;-2.46;100.00;94443.59;10487560;28;20024;-69
2021/01/15 05:22:02;;;;;;;8.70;5.35;;;;;;;-2.50;100.00;94450.25;10484704;28;20048;-69
2021/01/15 05:32:30;;;;;;;12.07;5.90;;;;;;;-2.67;100.00;94463.75;10501093;28;20020;-70
2021/01/15 05:37:30;;;;;;;8.02;4.80;;;;;;;-2.67;100.00;94465.59;10528781;28;20056;-70
2021/01/15 05:42:45;;;;;;;9.23;5.40;;;;;;;-2.93;100.00;94473.19;10528467;28;20464;-70
2021/01/15 05:47:46;;;;;;;12.35;5.35;;;;;;;-2.73;100.00;94475.09;10509774;28;20324;-69
2021/01/15 05:52:57;;;;;;;11.77;6.43;;;;;;;-2.51;100.00;94491.56;10528461;28;20024;-70
2021/01/15 05:58:08;;;;;;;18.02;6.45;;;;;;;-2.58;100.00;94491.53;10528481;28;20086;-70
2021/01/15 06:03:13;;;;;;;9.43;5.75;;;;;;;-2.29;100.00;94496.66;10494571;28;20048;-70
2021/01/15 06:08:14;;;;;;;21.23;6.45;;;;;;;-2.48;100.00;94496.41;10486964;28;20028;-71
2021/01/15 06:13:37;;;;;;;14.07;5.22;;;;;;;-2.76;100.00;94496.53;10487062;28;20024;-70
2021/01/15 06:19:00;;;;;;;8.75;5.18;;;;;;;-2.67;100.00;94505.84;10527158;28;20039;-71
2021/01/15 06:24:08;;;;;;;8.40;4.93;;;;;;;-2.79;100.00;94521.38;10527179;28;20028;-70
2021/01/15 06:29:10;;;;;;;;;;;;;;;-2.60;100.00;94519.84;10502903;28;20024;-70
2021/01/15 06:34:11;;;;;;;11.70;5.60;;;;;;;-2.70;100.00;94535.19;10523707;28;19965;-69
2021/01/15 06:39:11;;;;;;;15.52;5.55;;;;;;;-2.80;100.00;94553.16;10516177;28;20499;-70
2021/01/15 06:44:14;;;;;;;8.65;5.20;;;;;;;-2.66;100.00;94556.66;10497810;28;20032;-70
2021/01/15 06:49:17;;;;;;;7.70;5.13;;;;;;;-2.51;100.00;94569.66;10501721;28;20562;-70
2021/01/15 06:54:23;;;;;;;9.50;6.13;;;;;;;-2.66;100.00;94573.25;10479348;28;20502;-70
2021/01/15 06:59:33;;;;;;;13.80;6.68;;;;;;;-2.58;100.00;94586.25;10481143;28;20024;-70
2021/01/15 07:04:53;;;;;;;11.65;6.70;;;;;;;-2.29;100.00;94594.88;10489633;28;20020;-69
2021/01/15 07:09:54;;;;;;;12.35;6.10;;;;;;;-2.02;100.00;94594.97;10475466;28;20041;-70
2021/01/15 07:14:56;;;;;;;9.82;6.53;;;;;;;-1.82;100.00;94594.19;10528712;28;20100;-70
2021/01/15 07:20:05;;;;;;;10.48;6.00;;;;;;;-1.72;100.00;94610.41;10524238;28;20076;-70
2021/01/15 07:25:06;;;;;;;19.50;6.55;;;;;;;-1.74;100.00;94618.53;10494580;28;20036;-71
2021/01/15 07:30:24;;;;;;;22.73;7.65;;;;;;;-1.61;100.00;94622.19;10499556;28;20032;-70
2021/01/15 07:35:26;;;;;;;12.95;5.15;;;;;;;-1.37;100.00;94628.72;10498371;28;20040;-71
2021/01/15 07:40:34;;;;;;;7.18;4.78;;;;;;;-1.55;100.00;94638.03;10516719;28;20036;-71
2021/01/15 07:45:34;;;;;;;9.83;4.03;;;;;;;-2.14;100.00;94638.66;10483335;28;20036;-71
2021/01/15 07:50:40;;;;;;;12.37;6.60;;;;;;;-1.34;100.00;94643.31;10471949;28;20036;-71
2021/01/15 07:55:58;;;;;;;10.50;6.30;;;;;;;-0.79;100.00;94633.38;10520364;28;20103;-72
2021/01/15 08:01:05;;;;;;;17.95;7.80;;;;;;;-0.36;100.00;94635.53;10512140;28;20095;-71
2021/01/15 08:06:06;;;;;;;10.63;5.72;;;;;;;-0.33;100.00;94650.16;10530861;28;20039;-71
2021/01/15 08:11:11;;;;;;;9.95;5.65;;;;;;;-0.29;100.00;94656.66;10530034;28;20728;-71
2021/01/15 08:16:13;;;;;;;12.10;4.95;;;;;;;0.03;100.00;94643.53;10530521;28;20030;-71
2021/01/15 08:21:14;;;;;;;6.25;4.13;;;;;;;-0.83;100.00;94660.41;10528892;28;20059;-71
2021/01/15 08:26:20;;;;;;;10.45;5.13;;;;;;;-1.38;100.00;94662.19;10498372;28;20529;-70
2021/01/15 08:31:22;;;;;;;10.23;5.45;;;;;;;-0.88;100.00;94658.34;10500478;28;20476;-71
2021/01/15 08:36:22;;;;;;;9.63;5.00;;;;;;;-0.79;100.00;94672.16;10487147;28;20056;-70
2021/01/15 08:41:26;;;;;;;8.35;5.90;;;;;;;-0.26;100.00;94656.22;10485740;28;20032;-70
2021/01/15 08:46:27;;;;;;;16.05;5.43;;;;;;;0.92;99.71;94656.06;10485714;28;20077;-70
2021/01/15 08:51:32;;;;;;;9.80;5.05;;;;;;;0.58;88.78;94658.91;10486058;28;20077;-70
2021/01/15 08:56:34;;;;;;;8.43;5.75;;;;;;;-0.62;94.88;94657.53;10486901;28;20082;-70
2021/01/15 09:01:37;;;;;;;11.95;5.78;;;;;;;-1.31;100.00;94654.28;10486497;28;20549;-70
2021/01/15 09:06:38;;;;;;;9.95;5.38;;;;;;;-1.06;100.00;94649.22;10486916;28;20028;-70
2021/01/15 09:11:40;;;;;;;11.00;5.50;;;;;;;-0.38;98.38;94660.53;10485325;28;20032;-70
2021/01/15 09:16:41;;;;;;;9.20;5.38;;;;;;;0.45;95.66;94651.88;10486084;28;20025;-70
2021/01/15 09:21:51;;;;;;;10.38;4.53;;;;;;;2.11;82.53;94648.03;10517195;28;20124;-70
2021/01/15 09:27:02;;;;;;;11.43;4.57;;;;;;;2.97;68.34;94637.25;10509583;28;20028;-70
2021/01/15 09:32:03;;;;;;;7.72;4.72;;;;;;;3.92;60.70;94622.16;10526295;28;20028;-71
2021/01/15 09:37:03;;;;;;;6.30;4.13;;;;;;;4.24;57.26;94621.75;10526481;28;20034;-70
2021/01/15 09:42:04;;;;;;;12.27;4.50;;;;;;;3.52;54.33;94619.44;10499393;28;20036;-70
2021/01/15 09:47:05;;;;;;;12.25;4.05;;;;;;;2.31;63.27;94621.25;10508547;28;20039;-70
2021/01/15 09:52:07;;;;;;;10.80;4.82;;;;;;;2.63;60.96;94625.53;10510646;28;20031;-70
2021/01/15 09:57:07;;;;;;;8.55;4.22;;;;;;;2.11;62.21;94623.31;10491486;28;20032;-71
2021/01/15 10:02:08;;;;;;;13.07;5.10;;;;;;;1.53;66.74;94628.06;10485078;28;20032;-70
2021/01/15 10:07:11;;;;;;;12.55;5.15;;;;;;;1.23;71.50;94609.38;10491762;28;20075;-70
2021/01/15 10:12:12;;;;;;;12.43;5.35;;;;;;;0.76;77.35;94613.22;10509613;28;20032;-70
2021/01/15 10:17:13;;;;;;;12.25;4.55;;;;;;;0.50;81.47;94608.94;10524173;28;20028;-70
2021/01/15 10:22:13;;;;;;;12.00;6.15;;;;;;;0.56;83.18;94601.97;10525868;28;20656;-69
2021/01/15 10:27:13;;;;;;;9.45;5.13;;;;;;;0.61;81.70;94586.28;10509054;28;20030;-69
2021/01/15 10:32:14;;;;;;;10.50;4.43;;;;;;;0.82;77.68;94579.81;10520130;28;20380;-69
2021/01/15 10:37:14;;;;;;;13.57;5.87;;;;;;;0.86;80.29;94588.94;10493502;28;20286;-72
2021/01/15 10:42:15;;;;;;;11.63;4.35;;;;;;;0.67;77.01;94580.97;10522106;28;20290;-70
2021/01/15 10:47:15;;;;;;;10.83;4.53;;;;;;;0.26;78.49;94578.78;10530003;28;20123;-70
2021/01/15 10:52:15;;;;;;;14.80;5.43;;;;;;;0.82;85.22;94579.81;10531336;28;20024;-69
2021/01/15 10:57:16;;;;;;;9.20;5.00;;;;;;;0.41;76.67;94560.00;10532619;28;20406;-69
2021/01/15 11:02:16;;;;;;;10.17;5.13;;;;;;;0.87;76.76;94565.97;10531472;28;20858;-70
2021/01/15 11:07:17;;;;;;;14.60;5.03;;;;;;;4.48;55.17;94541.00;10526573;28;20286;-70
2021/01/15 11:12:20;;;;;;;12.23;4.40;;;;;;;5.62;47.68;94523.84;10494595;28;20172;-71
2021/01/15 11:17:20;;;;;;;6.97;3.95;;;;;;;8.99;41.57;94518.56;10511251;28;20039;-71
2021/01/15 11:22:20;;;;;;;10.57;3.90;;;;;;;11.99;34.66;94501.53;10531681;28;20052;-69
2021/01/15 11:27:21;;;;;;;5.43;3.77;;;;;;;8.30;36.40;94507.19;10529920;28;20274;-71
2021/01/15 11:32:21;;;;;;;6.70;4.70;;;;;;;7.27;39.97;94511.28;10531305;28;20028;-71
2021/01/15 11:37:23;;;;;;;6.20;3.42;;;;;;;8.42;40.75;94492.75;10519639;28;20033;-71
2021/01/15 11:42:23;;;;;;;9.27;5.03;;;;;;;6.42;41.94;94504.75;10495380;28;20036;-71
2021/01/15 11:47:24;;;;;;;5.90;4.33;;;;;;;6.91;41.40;94489.66;10489217;28;20036;-71
2021/01/15 11:52:24;;;;;;;6.10;3.72;;;;;;;8.38;39.51;94479.88;10489046;28;20159;-71
2021/01/15 11:57:25;;;;;;;6.37;2.83;;;;;;;9.04;36.06;94474.84;10496000;28;20036;-71
2021/01/15 12:02:25;;;;;;;5.73;3.63;;;;;;;6.85;40.55;94470.09;10522236;28;20033;-71
2021/01/15 12:07:28;;;;;;;8.80;4.57;;;;;;;3.97;46.90;94482.38;10488521;28;20029;-71
2021/01/15 12:12:29;;;;;;;10.60;4.18;;;;;;;2.53;50.54;94491.59;10471128;28;20036;-70
2021/01/15 12:17:30;;;;;;;6.37;4.30;;;;;;;2.38;60.66;94491.22;10478619;28;20036;-70
2021/01/15 12:22:31;;;;;;;7.90;4.85;;;;;;;1.90;57.07;94492.94;10492040;28;20662;-71
2021/01/15 12:27:31;;;;;;;7.40;4.75;;;;;;;1.32;61.44;94494.25;10493176;28;20032;-71
2021/01/15 12:32:32;;;;;;;14.13;5.10;;;;;;;1.98;62.98;94483.84;10508435;28;20035;-70
2021/01/15 12:37:32;;;;;;;8.43;3.63;;;;;;;2.21;55.78;94491.06;10486513;28;20084;-70
2021/01/15 12:42:32;;;;;;;6.20;4.13;;;;;;;0.69;60.07;94496.09;10487209;28;20025;-70
2021/01/15 12:47:39;;;;;;;7.95;4.53;;;;;;;0.16;63.52;94484.91;10487615;28;20025;-70
2021/01/15 12:52:39;;;;;;;8.48;5.05;;;;;;;0.27;66.11;94493.19;10486155;28;20023;-68
2021/01/15 12:57:40;;;;;;;7.47;5.37;;;;;;;0.22;69.67;94488.53;10486348;28;20035;-68
2021/01/15 13:02:41;;;;;;;9.18;6.25;;;;;;;0.15;67.76;94493.88;10486643;28;20059;-69
2021/01/15 13:07:42;;;;;;;9.57;5.05;;;;;;;-0.25;68.21;94498.56;10486014;28;20031;-68
2021/01/15 13:12:43;;;;;;;10.07;6.45;;;;;;;-0.44;72.93;94495.03;10485100;28;20640;-69
2021/01/15 13:17:58;;;;;;;10.98;6.30;;;;;;;-0.64;74.03;94493.28;10484719;28;20024;-69
2021/01/15 13:23:06;;;;;;;10.18;4.18;;;;;;;-0.30;69.44;94506.34;10480905;28;20118;-70
2021/01/15 13:28:08;;;;;;;;;;;;;;;-0.54;67.23;94512.13;10485368;28;20036;-69
2021/01/15 13:33:08;;;;;;;13.52;6.38;;;;;;;-0.41;71.12;94513.88;10486111;28;20299;-70
2021/01/15 13:38:09;;;;;;;13.93;5.70;;;;;;;-0.09;67.04;94519.22;10512440;28;20024;-69
2021/01/15 13:43:10;;;;;;;11.02;6.03;;;;;;;0.02;63.67;94517.75;10471406;28;20689;-70
2021/01/15 13:48:11;;;;;;;6.72;4.90;;;;;;;0.06;61.81;94515.50;10443801;28;20032;-70
2021/01/15 13:53:12;;;;;;;10.18;4.90;;;;;;;-0.26;62.87;94510.19;10442616;28;20110;-70
2021/01/15 13:58:13;;;;;;;14.73;5.68;;;;;;;-0.33;70.22;94519.97;10425536;28;20025;-69
2021/01/15 14:03:14;;;;;;;7.68;5.38;;;;;;;-0.47;76.28;94520.03;10458150;28;20021;-70
2021/01/15 14:08:15;;;;;;;9.73;5.30;;;;;;;-0.41;73.04;94526.28;10433006;28;20115;-70
2021/01/15 14:13:15;;;;;;;10.60;5.80;;;;;;;-0.09;72.57;94531.63;10454582;28;20410;-70
2021/01/15 14:18:16;;;;;;;15.57;6.22;;;;;;;0.25;73.85;94535.69;10487001;28;20024;-70
2021/01/15 14:23:19;;;;;;;13.27;6.07;;;;;;;0.31;73.84;94534.03;10509598;28;20044;-69
2021/01/15 14:28:19;;;;;;;15.30;6.45;;;;;;;0.12;80.13;94530.50;10513206;28;20107;-73
2021/01/15 14:33:20;;;;;;;11.90;6.82;;;;;;;-0.07;84.23;94529.56;10529441;28;20034;-72
2021/01/15 14:38:20;;;;;;;13.70;7.63;;;;;;;-0.28;82.51;94535.97;10527398;28;20034;-73
2021/01/15 14:43:21;;;;;;;24.77;9.13;;;;;;;-0.32;82.83;94532.13;10527478;28;20282;-73
2021/01/15 14:48:21;;;;;;;20.50;9.63;;;;;;;-0.49;88.02;94529.97;10529333;28;20837;-73
2021/01/15 14:53:22;;;;;;;15.23;7.78;;;;;;;-0.56;88.35;94535.28;10527124;28;20050;-73
2021/01/15 14:58:22;;;;;;;27.80;10.17;;;;;;;-0.81;90.27;94532.53;10529458;28;20016;-72
2021/01/15 15:03:22;;;;;;;15.43;8.50;;;;;;;-0.88;92.90;94527.25;10530467;28;20285;-72
2021/01/15 15:08:23;;;;;;;22.57;10.13;;;;;;;-0.96;94.32;94534.56;10530406;28;20104;-72
2021/01/15 15:13:23;;;;;;;14.85;8.90;;;;;;;-1.08;97.27;94527.28;10509583;28;20271;-72
2021/01/15 15:18:24;;;;;;;12.98;8.13;;;;;;;-1.18;99.83;94534.03;10508574;28;20032;-72
2021/01/15 15:23:24;;;;;;;16.57;8.97;;;;;;;-1.22;100.00;94521.22;10528460;28;20570;-72
2021/01/15 15:28:25;;;;;;;12.83;7.90;;;;;;;-1.33;100.00;94524.50;10509078;28;20282;-73
2021/01/15 15:33:32;;;;;;;18.15;11.77;;;;;;;-1.80;100.00;94526.31;10508756;28;20263;-72
2021/01/15 15:38:32;;;;;;;17.80;9.90;;;;;;;-2.02;100.00;94536.19;10528927;28;20023;-74
2021/01/15 15:43:32;;;;;;;21.27;11.35;;;;;;;-2.20;100.00;94539.41;10529358;28;20064;-74
2021/01/15 15:48:33;;;;;;;25.23;11.35;;;;;;;-2.48;100.00;94538.50;10529777;28;20130;-73
2021/01/15 15:53:33;;;;;;;18.58;10.45;;;;;;;-2.54;100.00;94530.59;10511284;28;20326;-72
2021/01/15 15:58:34;;;;;;;21.30;9.82;;;;;;;-2.42;100.00;94534.28;10521326;28;20049;-73
2021/01/15 16:03:34;;;;;;;20.55;11.50;;;;;;;-2.71;100.00;94551.97;10487882;28;20399;-74
2021/01/15 16:08:35;;;;;;;20.88;11.43;;;;;;;-2.79;100.00;94554.75;10487445;28;20024;-73
2021/01/15 16:13:38;;;;;;;26.55;12.73;;;;;;;-2.83;100.00;94550.88;10505325;28;20012;-73
2021/01/15 16:18:38;;;;;;;28.40;12.75;;;;;;;-2.89;100.00;94564.81;10529636;28;20035;-73
2021/01/15 16:23:39;;;;;;;20.23;11.63;;;;;;;-2.94;100.00;94562.78;10528736;28;20548;-73
2021/01/15 16:28:39;;;;;;;20.33;11.18;;;;;;;-2.87;100.00;94574.16;10497888;28;20780;-73
2021/01/15 16:33:40;;;;;;;17.48;11.15;;;;;;;-2.93;100.00;94569.66;10487482;28;20101;-73
2021/01/15 16:38:40;;;;;;;21.30;10.33;;;;;;;-2.91;100.00;94572.91;10493347;28;20725;-73
2021/01/15 16:43:40;;;;;;;23.67;11.87;;;;;;;-3.11;100.00;94559.66;10519679;28;20518;-74
2021/01/15 16:48:41;;;;;;;21.30;11.17;;;;;;;-3.27;100.00;94561.53;10506533;28;20756;-72
2021/01/15 16:53:41;;;;;;;22.02;12.02;;;;;;;-3.27;100.00;94556.28;10486538;28;20274;-72
2021/01/15 16:58:42;;;;;;;24.97;12.73;;;;;;;-3.32;100.00;94563.94;10511382;28;20023;-73
2021/01/15 17:03:42;;;;;;;29.05;13.13;;;;;;;-3.26;100.00;94565.81;10491522;28;20025;-72
2021/01/15 17:08:42;;;;;;;26.60;13.40;;;;;;;-3.14;100.00;94570.53;10478800;28;20113;-71
2021/01/15 17:13:43;;;;;;;30.40;13.70;;;;;;;-3.11;100.00;94570.16;10467182;28;20358;-73
2021/01/15 17:18:43;;;;;;;28.05;12.65;;;;;;;-3.07;100.00;94566.13;10476334;28;20270;-73
2021/01/15 17:23:44;;;;;;;24.30;12.43;;;;;;;-3.01;100.00;94569.81;10497361;28;20450;-73
2021/01/15 17:28:45;;;;;;;29.02;13.80;;;;;;;-2.89;100.00;94572.72;10486604;28;20279;-72
2021/01/15 17:33:49;;;;;;;25.63;11.67;;;;;;;-2.97;100.00;94577.13;10511697;28;20417;-73
2021/01/15 17:38:49;;;;;;;32.75;14.68;;;;;;;-3.14;100.00;94573.16;10520643;28;20024;-73
2021/01/15 17:43:50;;;;;;;26.20;13.90;;;;;;;-3.18;100.00;94587.69;10499454;28;20028;-73
2021/01/15 17:48:50;;;;;;;28.50;14.57;;;;;;;-3.02;100.00;94570.81;10519936;28;20032;-72
2021/01/15 17:53:51;;;;;;;24.07;13.73;;;;;;;-2.97;100.00;94579.75;10522934;28;20083;-73
2021/01/15 17:58:51;;;;;;;29.58;12.68;;;;;;;-3.12;100.00;94592.19;10521903;28;20282;-72
2021/01/15 18:03:51;;;;;;;25.63;13.20;;;;;;;-3.03;100.00;94584.97;10522083;28;20086;-72
2021/01/15 18:08:52;;;;;;;26.83;14.40;;;;;;;-2.96;100.00;94586.66;10520168;28;20290;-74
2021/01/15 18:13:53;;;;;;;24.15;11.30;;;;;;;-2.92;100.00;94577.38;10522709;28;20277;-73
2021/01/15 18:18:55;;;;;;;39.03;13.18;;;;;;;-2.87;100.00;94581.22;10520291;28;20128;-73
2021/01/15 18:23:56;;;;;;;31.92;12.07;;;;;;;-2.90;100.00;94585.06;10501183;28;20114;-73
2021/01/15 18:28:56;;;;;;;23.88;11.68;;;;;;;-2.85;100.00;94579.22;10504621;28;20020;-73
2021/01/15 18:33:57;;;;;;;21.97;11.37;;;;;;;-2.82;100.00;94579.66;10500378;28;20107;-73
2021/01/15 18:38:58;;;;;;;24.13;12.10;;;;;;;-2.78;100.00;94582.69;10521829;28;20285;-74
2021/01/15 18:43:58;;;;;;;16.42;9.65;;;;;;;-2.87;100.00;94578.59;10501559;28;20024;-73
2021/01/15 18:48:58;;;;;;;30.10;12.82;;;;;;;-2.74;100.00;94586.56;10526457;28;20050;-72
2021/01/15 18:53:59;;;;;;;20.00;10.65;;;;;;;-2.79;100.00;94581.88;10526465;28;20103;-72
2021/01/15 18:58:59;;;;;;;20.38;10.65;;;;;;;-2.72;100.00;94581.94;10515068;28;20024;-73
2021/01/15 19:04:00;;;;;;;21.77;9.83;;;;;;;-2.89;100.00;94591.91;10532102;28;20031;-73
2021/01/15 19:09:01;;;;;;;17.87;9.50;;;;;;;-2.98;100.00;94588.63;10527569;28;20148;-73
2021/01/15 19:14:02;;;;;;;23.92;10.32;;;;;;;-3.03;100.00;94579.69;10519002;28;20090;-73
2021/01/15 19:19:02;;;;;;;17.52;9.05;;;;;;;-3.07;100.00;94587.16;10552868;28;20116;-72
2021/01/15 19:24:04;;;;;;;17.13;9.43;;;;;;;-2.99;100.00;94584.38;10531779;28;20036;-73
2021/01/15 19:29:05;;;;;;;16.23;9.25;;;;;;;-2.88;100.00;94595.38;10514282;28;20882;-73
2021/01/15 19:34:05;;;;;;;19.58;11.45;;;;;;;-2.94;100.00;94589.88;10525807;28;20032;-73
2021/01/15 19:39:06;;;;;;;16.45;9.15;;;;;;;-2.87;100.00;94589.13;10503144;28;20031;-73
2021/01/15 19:44:07;;;;;;;17.52;8.80;;;;;;;-2.95;100.00;94590.06;10532378;28;20055;-73
2021/01/15 19:49:07;;;;;;;16.17;9.68;;;;;;;-2.84;100.00;94584.28;10501514;28;20052;-73
2021/01/15 19:54:08;;;;;;;21.95;10.30;;;;;;;-2.77;100.00;94587.75;10503044;28;20114;-72
2021/01/15 19:59:08;;;;;;;18.48;9.52;;;;;;;-2.74;100.00;94591.81;10529877;28;20587;-73
2021/01/15 20:04:09;;;;;;;20.58;8.73;;;;;;;-2.68;100.00;94582.34;10488661;28;20476;-73
2021/01/15 20:09:09;;;;;;;18.83;10.30;;;;;;;-2.64;100.00;94581.75;10518984;28;20024;-73
2021/01/15 20:14:10;;;;;;;16.53;9.33;;;;;;;-2.72;100.00;94581.94;10531149;28;20761;-73
2021/01/15 20:19:11;;;;;;;18.00;9.70;;;;;;;-2.74;100.00;94573.41;10515914;28;20339;-72
2021/01/15 20:24:11;;;;;;;15.13;8.65;;;;;;;-2.99;100.00;94581.75;10530459;28;20470;-73
2021/01/15 20:29:11;;;;;;;15.98;9.75;;;;;;;-3.15;100.00;94582.06;10530833;28;20079;-73
2021/01/15 20:34:12;;;;;;;13.90;7.83;;;;;;;-3.24;100.00;94578.75;10530068;28;20024;-74
2021/01/15 20:39:14;;;;;;;20.23;9.23;;;;;;;-3.09;100.00;94576.03;10523826;28;20307;-73
2021/01/15 20:44:15;;;;;;;18.35;8.35;;;;;;;-2.94;100.00;94576.72;10493132;28;20070;-73
2021/01/15 20:49:15;;;;;;;19.33;8.95;;;;;;;-2.94;100.00;94582.00;10492865;28;20085;-73
2021/01/15 20:54:15;;;;;;;11.17;7.60;;;;;;;-2.81;100.00;94575.19;10505905;28;20052;-73
2021/01/15 20:59:16;;;;;;;13.70;8.60;;;;;;;-2.86;100.00;94585.47;10487791;28;20804;-73
2021/01/15 21:04:16;;;;;;;16.00;8.23;;;;;;;-2.83;100.00;94585.06;10487490;28;20290;-73
2021/01/15 21:09:16;;;;;;;23.50;9.90;;;;;;;-2.70;100.00;94576.47;10486948;28;20418;-73
2021/01/15 21:14:17;;;;;;;15.70;8.70;;;;;;;-2.64;100.00;94578.31;10485009;28;20777;-73
2021/01/15 21:19:17;;;;;;;12.32;8.32;;;;;;;-2.64;100.00;94578.31;10472303;28;20308;-73
2021/01/15 21:24:19;;;;;;;10.93;7.45;;;;;;;-2.59;100.00;94584.59;10527340;28;20043;-73
2021/01/15 21:29:20;;;;;;;21.42;7.93;;;;;;;-2.48;100.00;94590.34;10528552;28;20039;-73
2021/01/15 21:34:22;;;;;;;14.82;8.05;;;;;;;-2.39;100.00;94583.09;10505865;28;20039;-73
2021/01/15 21:39:23;;;;;;;15.25;7.90;;;;;;;-2.42;100.00;94589.53;10509333;28;20475;-73
2021/01/15 21:44:23;;;;;;;12.00;7.00;;;;;;;-2.46;100.00;94580.41;10527716;28;20025;-73
2021/01/15 21:49:23;;;;;;;12.13;6.87;;;;;;;-2.39;100.00;94583.88;10528088;28;20274;-72
2021/01/15 21:54:24;;;;;;;14.75;7.47;;;;;;;-2.34;100.00;94589.38;10527281;28;20023;-73
2021/01/15 21:59:24;;;;;;;10.77;6.20;;;;;;;-2.41;100.00;94591.97;10527712;28;20498;-72
2021/01/15 22:04:25;;;;;;;10.80;5.97;;;;;;;-2.36;100.00;94574.78;10527200;28;20028;-72
2021/01/15 22:09:25;;;;;;;10.15;7.32;;;;;;;-2.39;100.00;94560.19;10527498;28;20327;-72
2021/01/15 22:14:25;;;;;;;18.57;7.07;;;;;;;-2.36;100.00;94562.44;10527743;28;20107;-72
2021/01/15 22:19:26;;;;;;;12.70;6.43;;;;;;;-2.35;100.00;94569.31;10492219;28;20305;-72
2021/01/15 22:24:26;;;;;;;11.83;7.50;;;;;;;-2.32;100.00;94560.22;10527000;28;20294;-72
2021/01/15 22:29:26;;;;;;;17.17;7.80;;;;;;;-2.36;100.00;94541.38;10527929;28;20364;-72
2021/01/15 22:34:27;;;;;;;12.43;6.75;;;;;;;-2.44;100.00;94542.38;10534614;28;20265;-73
2021/01/15 22:39:27;;;;;;;13.30;7.45;;;;;;;-2.46;100.00;94546.22;10521230;28;20039;-72
2021/01/15 22:44:28;;;;;;;11.43;6.07;;;;;;;-2.41;100.00;94549.06;10492799;28;20039;-72
2021/01/15 22:49:28;;;;;;;15.45;7.85;;;;;;;-2.41;100.00;94539.34;10474019;28;20085;-73
2021/01/15 22:54:28;;;;;;;10.80;6.13;;;;;;;-2.32;100.00;94532.06;10491458;28;20020;-72
2021/01/15 22:59:29;;;;;;;13.33;6.70;;;;;;;-2.30;100.00;94524.81;10490925;28;20293;-73
2021/01/15 23:04:29;;;;;;;11.70;6.03;;;;;;;-2.22;100.00;94529.06;10490965;28;20289;-74
2021/01/15 23:09:29;;;;;;;13.80;7.77;;;;;;;-2.21;100.00;94522.78;10490698;28;20056;-73